createdAt,value
2023-05-01T00:00:48.289Z,12.50
2023-05-01T00:03:20.809Z,7.00
2023-05-01T00:05:59.847Z,6.70
2023-05-01T00:08:32.688Z,7.53
2023-05-01T00:11:09.000Z,14.85
2023-05-01T00:13:41.388Z,8.52
2023-05-01T00:16:16.235Z,11.25
2023-05-01T00:18:48.558Z,13.70
2023-05-01T00:21:20.859Z,9.10
2023-05-01T00:23:53.239Z,7.18
2023-05-01T00:26:29.103Z,7.60
2023-05-01T00:29:02.421Z,5.65
2023-05-01T00:31:35.791Z,5.20
2023-05-01T00:34:08.219Z,6.75
2023-05-01T00:36:40.923Z,5.82
2023-05-01T00:39:13.502Z,8.43
2023-05-01T00:41:45.840Z,5.72
2023-05-01T00:44:18.387Z,6.55
2023-05-01T00:46:51.739Z,8.27
2023-05-01T00:49:24.516Z,8.05
2023-05-01T00:51:57.924Z,6.30
2023-05-01T00:54:30.338Z,5.95
2023-05-01T00:57:02.826Z,6.93
2023-05-01T00:59:35.678Z,7.78
2023-05-01T01:02:08.847Z,7.50
2023-05-01T01:04:42.445Z,6.10
2023-05-01T01:07:23.167Z,9.52
2023-05-01T01:10:05.107Z,5.35
2023-05-01T01:12:50.662Z,8.20
2023-05-01T01:15:29.921Z,6.13
2023-05-01T01:18:11.925Z,7.57
2023-05-01T01:20:49.400Z,7.10
2023-05-01T01:23:42.753Z,8.60
2023-05-01T01:26:32.943Z,6.45
2023-05-01T01:29:26.237Z,8.90
2023-05-01T01:32:09.047Z,7.75
2023-05-01T01:34:47.721Z,5.80
2023-05-01T01:37:24.726Z,7.45
2023-05-01T01:40:03.612Z,7.88
2023-05-01T01:42:40.368Z,5.82
2023-05-01T01:45:19.160Z,7.97
2023-05-01T01:47:54.360Z,7.43
2023-05-01T01:50:28.736Z,8.35
2023-05-01T01:53:04.167Z,6.43
2023-05-01T01:55:39.831Z,5.10
2023-05-01T01:58:16.195Z,6.07
2023-05-01T02:00:49.193Z,7.53
2023-05-01T02:03:23.990Z,9.88
2023-05-01T02:05:59.740Z,6.93
2023-05-01T02:08:34.111Z,6.68
2023-05-01T02:11:07.800Z,10.05
2023-05-01T02:13:42.364Z,5.97
2023-05-01T02:16:16.012Z,6.63
2023-05-01T02:18:50.605Z,4.85
2023-05-01T02:21:24.594Z,9.10
2023-05-01T02:24:00.133Z,6.97
2023-05-01T02:26:41.733Z,8.48
2023-05-01T02:29:14.592Z,6.30
2023-05-01T02:31:47.105Z,8.88
2023-05-01T02:34:19.934Z,7.82
2023-05-01T02:36:53.787Z,8.30
2023-05-01T02:39:26.886Z,12.20
2023-05-01T02:42:02.649Z,6.72
2023-05-01T02:44:40.514Z,11.13
2023-05-01T02:47:17.855Z,9.30
2023-05-01T02:49:52.370Z,7.47
2023-05-01T02:52:25.769Z,9.93
2023-05-01T02:55:08.492Z,11.25
2023-05-01T02:57:41.539Z,8.93
2023-05-01T03:00:14.316Z,6.75
2023-05-01T03:02:47.051Z,8.27
2023-05-01T03:05:19.541Z,7.80
2023-05-01T03:07:52.582Z,6.68
2023-05-01T03:10:24.902Z,6.88
2023-05-01T03:12:57.313Z,10.07
2023-05-01T03:15:29.795Z,8.35
2023-05-01T03:18:02.358Z,7.88
2023-05-01T03:20:35.030Z,7.30
2023-05-01T03:23:09.424Z,9.45
2023-05-01T03:25:41.780Z,7.30
2023-05-01T03:28:14.224Z,6.90
2023-05-01T03:30:46.638Z,7.43
2023-05-01T03:33:19.118Z,6.35
2023-05-01T03:36:00.028Z,7.78
2023-05-01T03:38:33.883Z,8.82
2023-05-01T03:41:15.317Z,7.65
2023-05-01T03:44:06.238Z,9.90
2023-05-01T03:46:43.771Z,10.68
2023-05-01T03:49:22.388Z,7.30
2023-05-01T03:51:54.712Z,11.63
2023-05-01T03:54:27.837Z,7.93
2023-05-01T03:57:09.279Z,8.85
2023-05-01T03:59:43.148Z,9.85
2023-05-01T04:02:16.780Z,8.40
2023-05-01T04:04:51.007Z,8.23
2023-05-01T04:07:24.102Z,9.18
2023-05-01T04:09:57.985Z,5.65
2023-05-01T04:12:30.553Z,6.20
2023-05-01T04:15:03.534Z,7.63
2023-05-01T04:17:38.351Z,13.65
2023-05-01T04:20:11.744Z,10.23
2023-05-01T04:22:44.437Z,11.35
2023-05-01T04:25:17.702Z,11.45
2023-05-01T04:27:51.453Z,11.23
2023-05-01T04:30:23.906Z,11.18
2023-05-01T04:32:56.925Z,13.55
2023-05-01T04:35:29.468Z,14.80
2023-05-01T04:38:01.973Z,9.75
2023-05-01T04:40:35.930Z,14.43
2023-05-01T04:43:08.283Z,9.20
2023-05-01T04:45:41.864Z,14.50
2023-05-01T04:48:14.614Z,12.10
2023-05-01T04:50:47.031Z,11.48
2023-05-01T04:53:19.551Z,15.20
2023-05-01T04:55:52.553Z,24.17
2023-05-01T04:58:24.900Z,15.60
2023-05-01T05:01:03.701Z,14.98
2023-05-01T05:03:36.193Z,12.77
2023-05-01T05:06:08.899Z,19.63
2023-05-01T05:08:41.695Z,19.95
2023-05-01T05:11:16.250Z,13.93
2023-05-01T05:13:51.455Z,15.88
2023-05-01T05:16:24.032Z,15.98
2023-05-01T05:18:57.076Z,15.25
2023-05-01T05:21:31.352Z,13.55
2023-05-01T05:24:04.526Z,15.55
2023-05-01T05:26:37.517Z,14.50
2023-05-01T05:29:09.870Z,17.73
2023-05-01T05:31:42.903Z,13.57
2023-05-01T05:34:15.332Z,13.65
2023-05-01T05:36:47.728Z,14.73
2023-05-01T05:39:22.925Z,13.65
2023-05-01T05:41:56.470Z,12.68
2023-05-01T05:44:28.864Z,10.65
2023-05-01T05:47:01.465Z,12.18
2023-05-01T05:49:37.061Z,11.15
2023-05-01T05:52:09.383Z,10.65
2023-05-01T05:54:42.505Z,12.73
2023-05-01T05:57:15.624Z,10.00
2023-05-01T05:59:53.961Z,7.73
2023-05-01T06:02:29.411Z,9.82
2023-05-01T06:05:02.194Z,8.85
2023-05-01T06:07:35.318Z,7.88
2023-05-01T06:10:08.429Z,6.18
2023-05-01T06:12:44.528Z,8.35
2023-05-01T06:15:24.045Z,8.10
2023-05-01T06:18:00.244Z,7.32
2023-05-01T06:20:32.786Z,6.78
2023-05-01T06:23:05.176Z,7.85
2023-05-01T06:25:48.778Z,7.50
2023-05-01T06:28:21.785Z,7.30
2023-05-01T06:30:54.128Z,6.80
2023-05-01T06:33:30.380Z,10.70
2023-05-01T06:36:13.107Z,6.93
2023-05-01T06:38:48.080Z,6.30
2023-05-01T06:41:21.747Z,7.13
2023-05-01T06:43:55.120Z,6.70
2023-05-01T06:46:27.514Z,8.55
2023-05-01T06:48:59.897Z,5.82
2023-05-01T06:51:32.700Z,6.75
2023-05-01T06:54:05.011Z,8.63
2023-05-01T06:56:39.011Z,7.95
2023-05-01T06:59:11.971Z,6.60
2023-05-01T07:01:44.563Z,8.30
2023-05-01T07:04:17.018Z,9.90
2023-05-01T07:06:49.418Z,10.10
2023-05-01T07:09:21.741Z,7.38
2023-05-01T07:11:56.258Z,6.53
2023-05-01T07:14:29.459Z,6.13
2023-05-01T07:17:02.258Z,6.65
2023-05-01T07:19:34.879Z,5.18
2023-05-01T07:22:07.165Z,6.45
2023-05-01T07:24:39.492Z,6.03
2023-05-01T07:27:11.829Z,7.60
2023-05-01T07:29:44.869Z,5.70
2023-05-01T07:32:17.334Z,6.43
2023-05-01T07:34:49.930Z,8.35
2023-05-01T07:37:23.392Z,4.05
2023-05-01T07:39:56.651Z,5.82
2023-05-01T07:42:29.341Z,6.38
2023-05-01T07:45:03.003Z,10.95
2023-05-01T07:47:35.846Z,4.47
2023-05-01T07:50:10.812Z,3.92
2023-05-01T07:52:43.268Z,4.95
2023-05-01T07:55:18.500Z,5.38
2023-05-01T07:57:50.963Z,8.85
2023-05-01T08:00:24.194Z,5.25
2023-05-01T08:02:56.620Z,5.13
2023-05-01T08:05:29.012Z,5.03
2023-05-01T08:08:01.413Z,6.78
2023-05-01T08:10:33.749Z,6.75
2023-05-01T08:13:06.050Z,5.10
2023-05-01T08:15:41.880Z,4.47
2023-05-01T08:18:18.958Z,5.20
2023-05-01T08:20:51.310Z,4.97
2023-05-01T08:23:24.598Z,6.05
2023-05-01T08:25:57.362Z,5.38
2023-05-01T08:28:29.813Z,6.28
2023-05-01T08:31:03.328Z,5.88
2023-05-01T08:33:35.767Z,4.95
2023-05-01T08:36:09.446Z,5.88
2023-05-01T08:38:41.726Z,6.57
2023-05-01T08:41:16.387Z,7.15
2023-05-01T08:43:49.461Z,4.70
2023-05-01T08:46:28.808Z,4.63
2023-05-01T08:49:05.045Z,5.95
2023-05-01T08:51:38.406Z,4.20
2023-05-01T08:54:11.740Z,8.88
2023-05-01T08:56:47.177Z,5.13
2023-05-01T08:59:22.452Z,4.40
2023-05-01T09:01:56.564Z,4.55
2023-05-01T09:04:31.657Z,5.38
2023-05-01T09:07:04.882Z,7.75
2023-05-01T09:09:37.372Z,5.32
2023-05-01T09:12:18.037Z,6.32
2023-05-01T09:14:51.712Z,4.32
2023-05-01T09:17:24.908Z,5.38
2023-05-01T09:19:58.052Z,3.40
2023-05-01T09:22:31.677Z,5.28
2023-05-01T09:25:04.480Z,4.07
2023-05-01T09:27:37.165Z,3.22
2023-05-01T09:30:10.321Z,4.22
2023-05-01T09:32:43.372Z,6.82
2023-05-01T09:35:17.289Z,4.80
2023-05-01T09:37:49.665Z,3.53
2023-05-01T09:40:27.344Z,2.58
2023-05-01T09:43:01.029Z,3.92
2023-05-01T09:45:33.521Z,3.40
2023-05-01T09:48:10.522Z,3.63
2023-05-01T09:50:42.933Z,5.43
2023-05-01T09:53:15.255Z,6.03
2023-05-01T09:56:01.030Z,3.42
2023-05-01T09:58:33.378Z,4.70
2023-05-01T10:01:06.179Z,4.20
2023-05-01T10:03:39.510Z,3.15
2023-05-01T10:06:12.217Z,2.75
2023-05-01T10:08:46.063Z,3.00
2023-05-01T10:11:18.358Z,2.92
2023-05-01T10:14:08.131Z,4.32
2023-05-01T10:16:40.564Z,3.75
2023-05-01T10:19:16.539Z,3.67
2023-05-01T10:21:49.210Z,3.80
2023-05-01T10:24:22.065Z,3.53
2023-05-01T10:26:55.541Z,2.90
2023-05-01T10:29:29.659Z,4.32
2023-05-01T10:32:04.072Z,3.05
2023-05-01T10:34:43.814Z,3.15
2023-05-01T10:37:19.374Z,3.38
2023-05-01T10:39:51.812Z,3.95
2023-05-01T10:42:24.209Z,7.03
2023-05-01T10:45:29.483Z,4.18
2023-05-01T10:48:01.997Z,3.08
2023-05-01T10:50:35.191Z,4.03
2023-05-01T10:53:17.430Z,4.63
2023-05-01T10:55:50.349Z,3.72
2023-05-01T10:58:55.673Z,4.75
2023-05-01T11:01:33.404Z,5.95
2023-05-01T11:04:07.711Z,3.08
2023-05-01T11:07:17.132Z,3.55
2023-05-01T11:09:54.408Z,3.63
2023-05-01T11:12:53.826Z,3.63
2023-05-01T11:18:05.237Z,3.22
2023-05-01T11:20:49.761Z,4.05
2023-05-01T11:23:24.721Z,5.03
2023-05-01T11:26:07.387Z,4.07
2023-05-01T11:28:41.174Z,2.35
2023-05-01T11:31:17.870Z,3.10
2023-05-01T11:33:50.321Z,2.92
2023-05-01T11:36:22.718Z,3.42
2023-05-01T11:38:57.750Z,3.10
2023-05-01T11:41:31.065Z,2.50
2023-05-01T11:44:03.508Z,4.28
2023-05-01T11:46:35.979Z,3.38
2023-05-01T11:49:09.076Z,5.38
2023-05-01T11:51:41.356Z,2.25
2023-05-01T11:54:15.826Z,3.20
2023-05-01T11:56:57.929Z,3.72
2023-05-01T11:59:30.613Z,2.10
2023-05-01T12:02:03.047Z,3.05
2023-05-01T12:04:35.873Z,5.30
2023-05-01T12:07:20.355Z,3.28
2023-05-01T12:09:53.531Z,2.40
2023-05-01T12:12:26.060Z,2.42
2023-05-01T12:14:58.725Z,3.22
2023-05-01T12:17:32.406Z,3.17
2023-05-01T12:20:06.531Z,3.25
2023-05-01T12:22:49.546Z,5.70
2023-05-01T12:25:29.301Z,2.75
2023-05-01T12:28:03.632Z,3.72
2023-05-01T12:30:36.859Z,5.18
2023-05-01T12:33:11.329Z,4.13
2023-05-01T12:35:48.033Z,4.60
2023-05-01T12:38:22.277Z,2.90
2023-05-01T12:40:56.360Z,3.33
2023-05-01T12:43:32.130Z,3.13
2023-05-01T12:46:06.111Z,4.40
2023-05-01T12:48:40.587Z,5.03
2023-05-01T12:51:18.606Z,2.22
2023-05-01T12:53:56.728Z,2.13
2023-05-01T12:56:30.194Z,1.35
2023-05-01T12:59:02.584Z,1.58
2023-05-01T13:01:35.226Z,2.25
2023-05-01T13:04:10.344Z,2.25
2023-05-01T13:06:43.809Z,3.25
2023-05-01T13:09:17.083Z,2.50
2023-05-01T13:12:04.962Z,1.92
2023-05-01T13:14:38.132Z,4.32
2023-05-01T13:17:11.472Z,3.20
2023-05-01T13:19:43.906Z,2.53
2023-05-01T13:22:16.283Z,1.30
2023-05-01T13:24:50.443Z,1.88
2023-05-01T13:27:23.946Z,2.63
2023-05-01T13:29:58.164Z,2.08
2023-05-01T13:32:31.873Z,1.45
2023-05-01T13:35:04.706Z,1.60
2023-05-01T13:37:38.459Z,2.17
2023-05-01T13:40:11.887Z,2.17
2023-05-01T13:43:12.112Z,2.38
2023-05-01T13:45:44.528Z,1.90
2023-05-01T13:48:18.095Z,3.40
2023-05-01T13:50:50.771Z,2.63
2023-05-01T13:53:23.097Z,3.00
2023-05-01T13:55:55.483Z,2.53
2023-05-01T13:58:29.254Z,2.20
2023-05-01T14:01:06.170Z,13.00
2023-05-01T14:03:42.563Z,2.17
2023-05-01T14:06:16.026Z,4.55
2023-05-01T14:08:50.702Z,2.75
2023-05-01T14:11:23.030Z,1.80
2023-05-01T14:13:59.048Z,1.45
2023-05-01T14:16:31.502Z,2.67
2023-05-01T14:19:05.249Z,2.42
2023-05-01T14:21:41.238Z,2.17
2023-05-01T14:24:16.989Z,3.15
2023-05-01T14:26:49.829Z,2.63
2023-05-01T14:29:27.276Z,2.60
2023-05-01T14:32:03.659Z,3.85
2023-05-01T14:34:39.303Z,2.42
2023-05-01T14:37:14.208Z,1.38
2023-05-01T14:39:49.826Z,2.15
2023-05-01T14:42:22.167Z,1.98
2023-05-01T14:44:55.571Z,2.15
2023-05-01T14:47:28.430Z,2.88
2023-05-01T14:50:01.261Z,1.77
2023-05-01T14:52:36.578Z,2.70
2023-05-01T14:55:12.308Z,2.17
2023-05-01T14:57:46.568Z,1.55
2023-05-01T15:00:19.865Z,1.42
2023-05-01T15:02:52.307Z,2.17
2023-05-01T15:05:25.443Z,1.35
2023-05-01T15:08:00.888Z,2.72
2023-05-01T15:10:33.397Z,4.32
2023-05-01T15:13:05.997Z,1.67
2023-05-01T15:15:39.004Z,2.17
2023-05-01T15:18:11.432Z,1.85
2023-05-01T15:20:43.870Z,6.93
2023-05-01T15:23:16.155Z,2.45
2023-05-01T15:25:49.889Z,2.38
2023-05-01T15:28:23.288Z,1.45
2023-05-01T15:30:56.281Z,3.45
2023-05-01T15:33:28.661Z,2.05
2023-05-01T15:36:01.040Z,1.30
2023-05-01T15:38:33.359Z,1.45
2023-05-01T15:41:05.603Z,2.55
2023-05-01T15:43:38.189Z,4.53
2023-05-01T15:46:11.375Z,3.20
2023-05-01T15:48:44.594Z,2.90
2023-05-01T15:51:16.935Z,2.15
2023-05-01T15:53:49.253Z,2.78
2023-05-01T15:56:21.836Z,3.45
2023-05-01T15:58:54.146Z,20.65
2023-05-01T16:01:27.128Z,27.17
2023-05-01T16:03:59.829Z,3.28
2023-05-01T16:06:34.599Z,15.95
2023-05-01T16:09:07.249Z,9.90
2023-05-01T16:11:39.601Z,14.63
2023-05-01T16:14:12.054Z,8.40
2023-05-01T16:16:45.489Z,5.22
2023-05-01T16:19:18.279Z,4.82
2023-05-01T16:21:50.598Z,4.35
2023-05-01T16:24:22.926Z,3.17
2023-05-01T16:26:55.270Z,3.47
2023-05-01T16:29:27.771Z,3.50
2023-05-01T16:32:01.535Z,3.38
2023-05-01T16:34:33.862Z,3.03
2023-05-01T16:37:06.220Z,1.98
2023-05-01T16:39:38.616Z,2.95
2023-05-01T16:42:12.273Z,2.35
2023-05-01T16:44:44.619Z,3.03
2023-05-01T16:47:17.762Z,5.30
2023-05-01T16:49:51.639Z,3.05
2023-05-01T16:52:24.010Z,3.03
2023-05-01T16:54:56.300Z,5.78
2023-05-01T16:57:28.722Z,6.20
2023-05-01T17:00:02.544Z,4.10
2023-05-01T17:02:36.350Z,4.32
2023-05-01T17:05:09.208Z,5.93
2023-05-01T17:07:41.525Z,3.78
2023-05-01T17:10:13.833Z,6.28
2023-05-01T17:12:47.314Z,5.18
2023-05-01T17:15:19.547Z,2.22
2023-05-01T17:17:52.567Z,2.40
2023-05-01T17:20:24.893Z,5.78
2023-05-01T17:22:57.236Z,7.78
2023-05-01T17:25:29.576Z,7.03
2023-05-01T17:28:02.290Z,3.90
2023-05-01T17:30:34.622Z,5.18
2023-05-01T17:33:07.865Z,5.68
2023-05-01T17:35:40.359Z,8.02
2023-05-01T17:38:13.147Z,13.63
2023-05-01T17:40:45.581Z,15.10
2023-05-01T17:43:18.038Z,19.02
2023-05-01T17:45:50.536Z,6.95
2023-05-01T17:48:23.614Z,8.82
2023-05-01T17:50:55.982Z,19.05
2023-05-01T17:53:28.413Z,8.10
2023-05-01T17:56:01.453Z,14.77
2023-05-01T17:58:33.735Z,6.47
2023-05-01T18:01:06.117Z,12.90
2023-05-01T18:03:39.312Z,7.50
2023-05-01T18:06:11.714Z,5.63
2023-05-01T18:08:44.217Z,12.85
2023-05-01T18:11:16.572Z,15.23
2023-05-01T18:13:48.876Z,15.77
2023-05-01T18:16:22.019Z,9.60
2023-05-01T18:18:57.372Z,11.82
2023-05-01T18:21:29.842Z,9.50
2023-05-01T18:24:02.641Z,8.10
2023-05-01T18:26:35.589Z,9.02
2023-05-01T18:29:07.932Z,8.70
2023-05-01T18:31:40.279Z,11.60
2023-05-01T18:34:13.287Z,9.65
2023-05-01T18:36:46.901Z,12.32
2023-05-01T18:39:21.103Z,7.88
2023-05-01T18:41:54.115Z,5.07
2023-05-01T18:44:26.442Z,5.85
2023-05-01T18:46:58.876Z,2.00
2023-05-01T18:49:31.933Z,8.02
2023-05-01T18:52:05.141Z,9.77
2023-05-01T18:54:37.411Z,8.93
2023-05-01T18:57:09.857Z,11.15
2023-05-01T18:59:43.599Z,6.78
2023-05-01T19:02:17.064Z,7.30
2023-05-01T19:04:57.246Z,5.20
2023-05-01T19:07:30.644Z,6.63
2023-05-01T19:10:03.224Z,5.72
2023-05-01T19:12:36.912Z,6.88
2023-05-01T19:15:09.870Z,9.88
2023-05-01T19:17:42.187Z,5.80
2023-05-01T19:20:15.442Z,6.85
2023-05-01T19:22:47.785Z,6.45
2023-05-01T19:25:20.017Z,6.47
2023-05-01T19:27:52.329Z,4.40
2023-05-01T19:30:24.722Z,6.05
2023-05-01T19:32:57.621Z,27.90
2023-05-01T19:35:30.690Z,20.67
2023-05-01T19:38:03.010Z,17.35
2023-05-01T19:40:35.468Z,19.75
2023-05-01T19:43:08.145Z,18.42
2023-05-01T19:45:40.511Z,14.15
2023-05-01T19:48:12.898Z,12.65
2023-05-01T19:50:50.378Z,13.07
2023-05-01T19:53:22.692Z,17.33
2023-05-01T19:55:55.025Z,21.48
2023-05-01T19:58:27.469Z,16.17
2023-05-01T20:01:02.782Z,12.27
2023-05-01T20:03:35.251Z,16.90
2023-05-01T20:06:08.405Z,14.55
2023-05-01T20:08:40.947Z,18.63
2023-05-01T20:11:13.286Z,11.27
2023-05-01T20:13:45.611Z,15.68
2023-05-01T20:16:18.036Z,18.30
2023-05-01T20:18:50.342Z,16.92
2023-05-01T20:21:23.466Z,15.73
2023-05-01T20:23:56.950Z,13.02
2023-05-01T20:26:29.252Z,13.95
2023-05-01T20:29:02.416Z,16.23
2023-05-01T20:31:34.875Z,18.40
2023-05-01T20:34:07.191Z,10.20
2023-05-01T20:36:40.148Z,9.77
2023-05-01T20:39:12.488Z,29.08
2023-05-01T20:41:44.829Z,21.60
2023-05-01T20:44:17.122Z,20.77
2023-05-01T20:46:49.489Z,18.48
2023-05-01T20:49:21.974Z,16.65
2023-05-01T20:51:57.762Z,23.33
2023-05-01T20:54:32.152Z,14.50
2023-05-01T20:57:04.686Z,13.43
2023-05-01T20:59:37.003Z,17.17
2023-05-01T21:02:09.402Z,11.50
2023-05-01T21:04:41.991Z,14.95
2023-05-01T21:07:15.541Z,13.80
2023-05-01T21:09:48.168Z,11.88
2023-05-01T21:12:20.478Z,13.35
2023-05-01T21:14:52.829Z,12.40
2023-05-01T21:17:25.553Z,9.60
2023-05-01T21:19:58.162Z,10.60
2023-05-01T21:22:31.306Z,9.90
2023-05-01T21:25:04.380Z,12.63
2023-05-01T21:27:39.672Z,8.70
2023-05-01T21:30:27.984Z,10.82
2023-05-01T21:33:00.995Z,13.75
2023-05-01T21:35:33.945Z,10.75
2023-05-01T21:38:07.840Z,14.02
2023-05-01T21:40:41.559Z,14.48
2023-05-01T21:43:14.000Z,17.75
2023-05-01T21:45:46.413Z,11.55
2023-05-01T21:48:19.528Z,11.95
2023-05-01T21:50:52.024Z,19.08
2023-05-01T21:53:27.280Z,13.05
2023-05-01T21:56:00.139Z,13.52
2023-05-01T21:58:33.000Z,11.00
2023-05-01T22:01:06.108Z,13.98
2023-05-01T22:03:40.794Z,8.23
2023-05-01T22:06:13.324Z,10.55
2023-05-01T22:08:46.496Z,15.55
2023-05-01T22:11:19.382Z,9.23
2023-05-01T22:13:51.734Z,8.90
2023-05-01T22:16:24.282Z,10.63
2023-05-01T22:18:56.764Z,11.60
2023-05-01T22:21:31.023Z,11.25
2023-05-01T22:24:04.921Z,15.32
2023-05-01T22:26:37.296Z,13.32
2023-05-01T22:29:09.947Z,9.25
2023-05-01T22:31:42.296Z,15.15
2023-05-01T22:34:15.550Z,16.30
2023-05-01T22:36:47.818Z,12.77
2023-05-01T22:39:21.488Z,12.75
2023-05-01T22:41:53.820Z,12.45
2023-05-01T22:44:26.977Z,13.68
2023-05-01T22:46:59.321Z,11.95
2023-05-01T22:49:32.156Z,10.82
2023-05-01T22:52:04.995Z,15.40
2023-05-01T22:54:37.967Z,15.70
2023-05-01T22:57:10.348Z,15.77
2023-05-01T22:59:43.296Z,12.63
2023-05-01T23:02:16.820Z,15.38
2023-05-01T23:04:49.252Z,14.77
2023-05-01T23:07:21.634Z,13.15
2023-05-01T23:09:55.681Z,17.58
2023-05-01T23:12:28.190Z,16.83
2023-05-01T23:15:01.010Z,14.55
2023-05-01T23:17:34.988Z,17.88
2023-05-01T23:20:08.878Z,14.90
2023-05-01T23:22:41.233Z,16.05
2023-05-01T23:25:20.968Z,13.07
2023-05-01T23:30:26.360Z,10.43
2023-05-01T23:32:59.197Z,10.20
2023-05-01T23:35:31.669Z,11.02
2023-05-01T23:38:04.071Z,16.17
2023-05-01T23:40:37.305Z,12.88
2023-05-01T23:43:10.997Z,19.98
2023-05-01T23:45:43.750Z,14.23
2023-05-01T23:48:16.170Z,14.48
2023-05-01T23:50:48.599Z,11.43
2023-05-01T23:53:21.160Z,11.32
2023-05-01T23:55:54.543Z,15.20
2023-05-01T23:58:27.219Z,11.52
